Time;durP1;ratioP1;P1;durP2;ratioP2;P2;SDS_P1;SDS_P2;PMS_P1;PMS_P2;Temp;Humidity;BMP_temperature;BMP_pressure;BME280_temperature;BME280_humidity;BME280_pressure;Samples;Min_cycle;Max_cycle;Signal;HPM_P1;HPM_P2
2022/04/07 00:04:13;;;;;;;6.70;5.72;;;;;;;;;;743473;80;26263;-71
2022/04/07 00:05:16;;;;;;;6.17;5.55;;;;;;;;;;725711;82;26363;-70
2022/04/07 00:06:19;;;;;;;6.70;5.80;;;;;;;;;;725252;81;26293;-71
2022/04/07 00:07:22;;;;;;;10.85;5.87;;;;;;;;;;733141;81;26281;-71
2022/04/07 00:08:27;;;;;;;6.60;5.97;;;;;;;;;;730921;81;26367;-69
2022/04/07 00:09:30;;;;;;;6.65;5.78;;;;;;;;;;738067;80;26289;-70
2022/04/07 00:16:41;;;;;;;9.98;6.12;;;;;;;;;;772544;77;26259;-70
2022/04/07 00:17:44;;;;;;;6.40;5.70;;;;;;;;;;772266;77;26705;-70
2022/04/07 00:18:48;;;;;;;6.42;5.58;;;;;;;;;;772155;77;26710;-71
2022/04/07 00:19:52;;;;;;;8.58;6.05;;;;;;;;;;772034;77;26245;-70
2022/04/07 00:20:55;;;;;;;6.05;5.45;;;;;;;;;;770815;77;26303;-70
2022/04/07 00:21:59;;;;;;;6.85;5.85;;;;;;;;;;751964;79;26782;-71
2022/04/07 00:23:03;;;;;;;7.20;6.30;;;;;;;;;;768600;77;26667;-71
2022/04/07 00:24:06;;;;;;;6.50;5.90;;;;;;;;;;768632;77;26293;-71
2022/04/07 00:25:10;;;;;;;7.00;6.05;;;;;;;;;;768624;77;26295;-72
2022/04/07 00:26:13;;;;;;;6.58;5.83;;;;;;;;;;768789;77;26724;-70
2022/04/07 00:27:16;;;;;;;7.00;6.28;;;;;;;;;;768693;77;26694;-71
2022/04/07 00:28:20;;;;;;;6.60;5.90;;;;;;;;;;769063;77;26250;-71
2022/04/07 00:29:22;;;;;;;6.30;5.70;;;;;;;;;;769207;77;26258;-70
2022/04/07 00:34:07;;;;;;;6.37;5.80;;;;;;;;;;758465;78;26285;-70
2022/04/07 00:35:10;;;;;;;6.17;5.58;;;;;;;;;;752427;78;26735;-70
2022/04/07 00:36:13;;;;;;;5.95;5.47;;;;;;;;;;767147;76;26308;-71
2022/04/07 00:43:02;;;;;;;7.53;5.30;;;;;;;;;;777201;76;26233;-70
2022/04/07 00:44:08;;;;;;;8.73;5.65;;;;;;;;;;755730;78;26258;-71
2022/04/07 00:45:09;;;;;;;5.40;4.90;;;;;;;;;;776709;76;26344;-71
2022/04/07 00:46:12;;;;;;;5.50;5.00;;;;;;;;;;776214;76;26261;-71
2022/04/07 00:47:15;;;;;;;12.43;6.10;;;;;;;;;;776308;76;26689;-71
2022/04/07 00:48:18;;;;;;;6.15;5.65;;;;;;;;;;776262;76;26251;-70
2022/04/07 00:49:23;;;;;;;6.55;5.85;;;;;;;;;;754978;78;26325;-70
2022/04/07 00:54:18;;;;;;;6.12;5.53;;;;;;;;;;776674;76;26290;-70
2022/04/07 00:55:21;;;;;;;6.37;5.78;;;;;;;;;;777142;76;26249;-70
2022/04/07 00:56:24;;;;;;;6.30;5.70;;;;;;;;;;777010;76;26239;-72
2022/04/07 00:57:27;;;;;;;6.30;5.70;;;;;;;;;;776833;76;26295;-71
2022/04/07 00:58:30;;;;;;;6.40;5.80;;;;;;;;;;777079;76;26335;-71
2022/04/07 00:59:34;;;;;;;8.98;6.58;;;;;;;;;;776646;76;26248;-71
2022/04/07 01:04:31;;;;;;;7.05;6.22;;;;;;;;;;769975;77;26192;-70
2022/04/07 01:05:34;;;;;;;8.05;6.10;;;;;;;;;;769993;77;26253;-70
2022/04/07 01:06:36;;;;;;;7.08;5.75;;;;;;;;;;769996;77;26708;-70
2022/04/07 01:07:39;;;;;;;6.97;6.15;;;;;;;;;;769957;77;24666;-70
2022/04/07 01:08:43;;;;;;;6.20;5.62;;;;;;;;;;769911;77;26304;-69
2022/04/07 01:13:47;;;;;;;7.78;5.70;;;;;;;;;;782953;76;26132;-74
2022/04/07 01:15:01;;;;;;;7.05;5.72;;;;;;;;;;782267;76;26225;-71
2022/04/07 01:16:08;;;;;;;6.87;6.28;;;;;;;;;;781767;76;26241;-73
2022/04/07 01:17:14;;;;;;;6.08;5.55;;;;;;;;;;781560;76;26298;-70
2022/04/07 01:18:17;;;;;;;6.53;5.87;;;;;;;;;;781316;76;26646;-70
2022/04/07 01:19:20;;;;;;;6.80;5.97;;;;;;;;;;781354;76;26346;-71
2022/04/07 01:20:23;;;;;;;6.92;6.28;;;;;;;;;;781346;76;26677;-69
2022/04/07 01:21:32;;;;;;;9.65;6.05;;;;;;;;;;781299;76;26662;-71
2022/04/07 01:22:36;;;;;;;7.58;6.30;;;;;;;;;;781241;76;26233;-70
2022/04/07 01:23:39;;;;;;;6.50;5.90;;;;;;;;;;781186;75;26235;-71
2022/04/07 01:33:48;;;;;;;7.97;6.00;;;;;;;;;;818353;72;26225;-74
2022/04/07 01:34:51;;;;;;;6.72;6.10;;;;;;;;;;818630;72;26216;-71
2022/04/07 01:35:54;;;;;;;6.67;6.00;;;;;;;;;;817843;72;26260;-70
2022/04/07 01:36:56;;;;;;;6.42;5.83;;;;;;;;;;817181;72;26282;-71
2022/04/07 01:38:00;;;;;;;6.30;5.80;;;;;;;;;;817203;72;26217;-75
2022/04/07 01:39:04;;;;;;;6.30;5.80;;;;;;;;;;817461;72;26307;-70
2022/04/07 01:42:22;;;;;;;6.20;5.45;;;;;;;;;;817415;72;26150;-70
2022/04/07 01:43:26;;;;;;;6.37;5.78;;;;;;;;;;817149;72;26226;-70
2022/04/07 01:44:30;;;;;;;6.33;5.83;;;;;;;;;;817238;72;26327;-71
2022/04/07 01:45:33;;;;;;;6.78;6.12;;;;;;;;;;817193;72;26662;-73
2022/04/07 01:46:37;;;;;;;6.20;5.60;;;;;;;;;;817315;72;26299;-70
2022/04/07 01:47:40;;;;;;;7.03;5.90;;;;;;;;;;817189;72;26218;-71
2022/04/07 01:48:44;;;;;;;6.80;6.10;;;;;;;;;;817260;72;26216;-71
2022/04/07 01:53:16;;;;;;;6.40;5.78;;;;;;;;;;817157;72;26143;-71
2022/04/07 01:54:19;;;;;;;6.53;5.92;;;;;;;;;;817147;72;26218;-71
2022/04/07 01:55:23;;;;;;;7.20;6.10;;;;;;;;;;817089;72;26219;-70
2022/04/07 01:56:26;;;;;;;7.22;6.25;;;;;;;;;;817284;72;26218;-71
2022/04/07 01:57:29;;;;;;;6.22;5.47;;;;;;;;;;817114;72;26275;-71
2022/04/07 01:58:32;;;;;;;7.78;5.95;;;;;;;;;;817241;72;26660;-70
2022/04/07 01:59:35;;;;;;;6.65;5.95;;;;;;;;;;817412;72;26207;-70
2022/04/07 02:02:09;;;;;;;5.83;5.33;;;;;;;;;;758997;73;26286;-70
2022/04/07 02:03:12;;;;;;;6.30;5.60;;;;;;;;;;768687;77;26347;-71
2022/04/07 02:04:15;;;;;;;6.47;5.87;;;;;;;;;;768592;77;26703;-71
2022/04/07 02:05:19;;;;;;;7.03;6.42;;;;;;;;;;768632;77;26250;-70
2022/04/07 02:06:25;;;;;;;7.50;6.30;;;;;;;;;;770357;77;26242;-72
2022/04/07 02:07:30;;;;;;;6.92;6.20;;;;;;;;;;769896;77;26663;-72
2022/04/07 02:19:13;;;;;;;7.70;5.75;;;;;;;;;;757451;78;26230;-70
2022/04/07 02:24:10;;;;;;;6.83;6.12;;;;;;;;;;758868;78;26180;-73
2022/04/07 02:25:14;;;;;;;6.37;5.78;;;;;;;;;;758737;78;26267;-70
2022/04/07 02:26:17;;;;;;;7.33;6.20;;;;;;;;;;757463;78;26705;-71
2022/04/07 02:27:20;;;;;;;6.60;6.00;;;;;;;;;;737633;80;26718;-70
2022/04/07 02:28:23;;;;;;;6.47;5.87;;;;;;;;;;759373;77;26336;-71
2022/04/07 02:29:26;;;;;;;6.10;5.50;;;;;;;;;;758803;78;26330;-71
2022/04/07 02:32:42;;;;;;;5.50;5.10;;;;;;;;;;739428;79;26241;-70
2022/04/07 02:33:46;;;;;;;5.85;5.35;;;;;;;;;;738600;80;26320;-70
2022/04/07 02:34:49;;;;;;;5.90;5.50;;;;;;;;;;738860;80;26249;-70
2022/04/07 02:35:51;;;;;;;6.33;5.70;;;;;;;;;;738820;80;26324;-69
2022/04/07 02:37:01;;;;;;;7.08;5.37;;;;;;;;;;739247;80;26261;-72
2022/04/07 02:38:04;;;;;;;6.10;5.25;;;;;;;;;;738991;80;26766;-71
2022/04/07 02:39:07;;;;;;;6.03;5.53;;;;;;;;;;738889;80;26334;-71
2022/04/07 02:42:07;;;;;;;5.75;5.25;;;;;;;;;;721927;82;26261;-70
2022/04/07 02:43:10;;;;;;;6.37;5.75;;;;;;;;;;722089;82;26831;-70
2022/04/07 02:44:13;;;;;;;6.83;5.55;;;;;;;;;;722079;82;26297;-71
2022/04/07 02:45:16;;;;;;;7.28;5.58;;;;;;;;;;722104;82;26296;-71
2022/04/07 02:46:19;;;;;;;5.75;5.25;;;;;;;;;;722092;82;26790;-70
2022/04/07 02:47:22;;;;;;;6.17;5.58;;;;;;;;;;722144;82;26741;-72
2022/04/07 02:48:25;;;;;;;6.15;5.55;;;;;;;;;;722721;82;26347;-71
2022/04/07 02:51:33;;;;;;;5.62;5.05;;;;;;;;;;753683;78;26789;-71
2022/04/07 02:52:36;;;;;;;6.12;5.62;;;;;;;;;;745830;79;26250;-71
2022/04/07 02:53:39;;;;;;;6.35;5.83;;;;;;;;;;745812;79;26258;-71
2022/04/07 02:54:42;;;;;;;5.92;5.42;;;;;;;;;;745744;79;26711;-71
2022/04/07 02:55:45;;;;;;;5.50;5.00;;;;;;;;;;745733;79;26250;-71
2022/04/07 02:56:48;;;;;;;6.30;5.75;;;;;;;;;;745692;79;26249;-71
2022/04/07 02:57:53;;;;;;;6.35;5.75;;;;;;;;;;745686;79;26303;-70
2022/04/07 02:58:56;;;;;;;5.30;4.80;;;;;;;;;;745684;78;26330;-70
2022/04/07 03:07:20;;;;;;;6.72;5.83;;;;;;;;;;723101;81;26334;-70
2022/04/07 03:08:23;;;;;;;6.37;5.78;;;;;;;;;;723456;82;26365;-71
2022/04/07 03:09:26;;;;;;;7.20;6.17;;;;;;;;;;743744;79;26743;-70
2022/04/07 03:10:30;;;;;;;6.20;5.60;;;;;;;;;;749717;79;26706;-71
2022/04/07 03:11:33;;;;;;;6.83;5.53;;;;;;;;;;749739;79;26692;-72
2022/04/07 03:12:41;;;;;;;6.00;5.50;;;;;;;;;;749579;79;26334;-73
2022/04/07 03:13:44;;;;;;;6.45;5.67;;;;;;;;;;749703;79;26440;-70
2022/04/07 03:14:47;;;;;;;6.20;5.60;;;;;;;;;;749646;79;26332;-71
2022/04/07 03:15:50;;;;;;;7.33;5.90;;;;;;;;;;749650;79;26282;-71
2022/04/07 03:16:53;;;;;;;6.20;5.62;;;;;;;;;;748910;79;26273;-71
2022/04/07 03:17:57;;;;;;;6.35;5.20;;;;;;;;;;749669;79;26275;-72
2022/04/07 03:19:00;;;;;;;6.30;5.70;;;;;;;;;;749704;79;26316;-70
2022/04/07 03:22:23;;;;;;;6.50;5.90;;;;;;;;;;780153;76;26707;-70
2022/04/07 03:23:26;;;;;;;6.35;5.75;;;;;;;;;;779812;76;26403;-73
2022/04/07 03:24:31;;;;;;;5.85;5.35;;;;;;;;;;779981;76;26242;-71
2022/04/07 03:25:36;;;;;;;6.20;5.60;;;;;;;;;;764100;77;26314;-72
2022/04/07 03:26:42;;;;;;;5.95;5.45;;;;;;;;;;780934;76;26243;-72
2022/04/07 03:27:46;;;;;;;6.05;5.45;;;;;;;;;;780495;76;26313;-73
2022/04/07 03:28:49;;;;;;;8.05;5.80;;;;;;;;;;781122;76;26244;-71
2022/04/07 03:33:21;;;;;;;5.97;5.37;;;;;;;;;;767128;77;26170;-72
2022/04/07 03:34:24;;;;;;;7.00;6.30;;;;;;;;;;766909;77;26267;-72
2022/04/07 03:35:27;;;;;;;8.60;5.97;;;;;;;;;;766961;77;26328;-71
2022/04/07 03:36:29;;;;;;;5.97;5.47;;;;;;;;;;766928;77;26352;-72
2022/04/07 03:43:10;;;;;;;7.90;6.08;;;;;;;;;;757916;78;26647;-69
2022/04/07 03:44:16;;;;;;;6.53;5.87;;;;;;;;;;760162;78;26258;-69
2022/04/07 03:45:20;;;;;;;7.03;6.00;;;;;;;;;;759939;78;26310;-70
2022/04/07 03:54:48;;;;;;;8.28;6.60;;;;;;;;;;759294;78;26177;-70
2022/04/07 03:55:52;;;;;;;7.30;6.47;;;;;;;;;;759165;78;26783;-70
2022/04/07 03:56:55;;;;;;;8.68;7.22;;;;;;;;;;760493;78;26256;-71
2022/04/07 03:57:58;;;;;;;7.75;7.05;;;;;;;;;;760319;78;26253;-70
2022/04/07 04:02:50;;;;;;;6.67;6.08;;;;;;;;;;794812;75;26205;-71
2022/04/07 04:03:55;;;;;;;7.70;5.95;;;;;;;;;;794830;75;26257;-70
2022/04/07 04:04:58;;;;;;;6.10;5.53;;;;;;;;;;794722;75;26241;-70
2022/04/07 04:06:03;;;;;;;7.65;6.15;;;;;;;;;;793586;75;26687;-71
2022/04/07 04:07:06;;;;;;;6.75;5.95;;;;;;;;;;793716;75;26741;-73
2022/04/07 04:13:48;;;;;;;6.65;6.05;;;;;;;;;;763570;77;26192;-69
2022/04/07 04:14:54;;;;;;;9.03;6.62;;;;;;;;;;763512;77;26250;-71
2022/04/07 04:15:57;;;;;;;7.25;6.60;;;;;;;;;;763527;77;26269;-70
2022/04/07 04:17:05;;;;;;;7.70;7.00;;;;;;;;;;763525;77;26775;-69
2022/04/07 04:18:08;;;;;;;7.33;6.35;;;;;;;;;;763538;77;26249;-69
2022/04/07 04:23:06;;;;;;;7.37;6.55;;;;;;;;;;738331;80;26210;-71
2022/04/07 04:24:12;;;;;;;7.12;6.12;;;;;;;;;;738204;80;26743;-71
2022/04/07 04:25:20;;;;;;;7.90;6.60;;;;;;;;;;737540;80;26285;-71
2022/04/07 04:26:24;;;;;;;6.35;5.75;;;;;;;;;;748734;79;26267;-71
2022/04/07 04:27:27;;;;;;;9.78;6.47;;;;;;;;;;748725;79;26266;-71
2022/04/07 04:28:31;;;;;;;6.78;6.17;;;;;;;;;;749906;79;26245;-72
2022/04/07 04:32:05;;;;;;;7.00;5.80;;;;;;;;;;749770;79;26217;-70
2022/04/07 04:33:10;;;;;;;6.80;6.20;;;;;;;;;;748422;79;26272;-69
2022/04/07 04:38:11;;;;;;;6.85;6.15;;;;;;;;;;777629;76;26310;-72
2022/04/07 04:41:50;;;;;;;8.70;6.25;;;;;;;;;;778286;76;26683;-73
2022/04/07 04:42:53;;;;;;;7.47;6.75;;;;;;;;;;750717;78;26338;-71
2022/04/07 04:44:00;;;;;;;8.10;6.20;;;;;;;;;;737950;80;26372;-72
2022/04/07 04:45:02;;;;;;;7.03;6.20;;;;;;;;;;760224;78;26317;-72
2022/04/07 04:46:06;;;;;;;6.40;5.80;;;;;;;;;;760082;78;26263;-73
2022/04/07 04:47:09;;;;;;;8.20;6.30;;;;;;;;;;760601;78;26266;-72
2022/04/07 04:48:12;;;;;;;6.95;6.28;;;;;;;;;;760182;78;26278;-71
2022/04/07 04:51:45;;;;;;;10.70;7.40;;;;;;;;;;803637;73;26262;-71
2022/04/07 04:52:48;;;;;;;10.20;9.20;;;;;;;;;;803675;74;26304;-72
2022/04/07 04:53:51;;;;;;;15.10;11.45;;;;;;;;;;803644;74;26668;-73
2022/04/07 04:54:54;;;;;;;13.62;11.08;;;;;;;;;;803621;73;26669;-72
2022/04/07 04:55:57;;;;;;;15.30;10.75;;;;;;;;;;803621;73;26222;-72
2022/04/07 04:57:00;;;;;;;12.05;10.05;;;;;;;;;;803541;74;26219;-72
2022/04/07 04:58:02;;;;;;;12.30;9.68;;;;;;;;;;803609;74;26221;-74
2022/04/07 05:02:39;;;;;;;10.30;9.13;;;;;;;;;;784899;75;26471;-71
2022/04/07 05:03:41;;;;;;;12.15;9.53;;;;;;;;;;786430;75;26305;-71
2022/04/07 05:04:46;;;;;;;9.88;8.38;;;;;;;;;;795224;74;26248;-73
2022/04/07 05:05:52;;;;;;;10.10;8.83;;;;;;;;;;795466;74;26226;-72
2022/04/07 05:06:57;;;;;;;10.55;8.90;;;;;;;;;;795170;74;26229;-72
2022/04/07 05:13:25;;;;;;;10.38;8.95;;;;;;;;;;750854;79;26168;-72
2022/04/07 05:14:29;;;;;;;9.95;8.95;;;;;;;;;;760809;78;26306;-72
2022/04/07 05:15:31;;;;;;;12.80;11.50;;;;;;;;;;772775;77;26240;-72
2022/04/07 05:16:34;;;;;;;13.18;10.72;;;;;;;;;;772776;77;26244;-73
2022/04/07 05:17:37;;;;;;;13.68;9.95;;;;;;;;;;772050;77;26229;-72
2022/04/07 05:20:42;;;;;;;11.18;9.13;;;;;;;;;;776778;76;26314;-71
2022/04/07 05:30:53;;;;;;;10.82;8.93;;;;;;;;;;750222;79;26174;-73
2022/04/07 05:31:57;;;;;;;11.00;9.70;;;;;;;;;;774407;76;26241;-73
2022/04/07 05:33:05;;;;;;;11.30;8.78;;;;;;;;;;773392;75;26255;-73
2022/04/07 05:34:14;;;;;;;9.73;8.63;;;;;;;;;;774474;76;26679;-72
2022/04/07 05:35:20;;;;;;;10.32;9.23;;;;;;;;;;774308;76;26310;-72
2022/04/07 05:36:29;;;;;;;11.18;9.20;;;;;;;;;;774457;76;26244;-73
2022/04/07 05:37:34;;;;;;;10.40;9.40;;;;;;;;;;761609;78;26675;-71
2022/04/07 05:40:48;;;;;;;12.07;10.80;;;;;;;;;;774634;76;26649;-72
2022/04/07 05:41:55;;;;;;;16.62;13.08;;;;;;;;;;763074;77;26663;-72
2022/04/07 05:43:01;;;;;;;13.60;12.00;;;;;;;;;;776400;76;26296;-71
2022/04/07 05:44:08;;;;;;;13.05;11.18;;;;;;;;;;776224;76;26211;-73
2022/04/07 05:45:22;;;;;;;13.83;10.93;;;;;;;;;;776525;76;26273;-72
2022/04/07 05:46:33;;;;;;;10.45;9.33;;;;;;;;;;776475;76;26733;-71
2022/04/07 05:47:42;;;;;;;10.93;9.50;;;;;;;;;;771796;76;26232;-71
2022/04/07 05:51:01;;;;;;;14.45;9.33;;;;;;;;;;781752;76;26185;-71
2022/04/07 05:52:29;;;;;;;9.43;8.55;;;;;;;;;;762530;77;26350;-74
2022/04/07 05:53:36;;;;;;;10.60;9.30;;;;;;;;;;779429;75;26237;-73
2022/04/07 05:54:40;;;;;;;10.55;8.10;;;;;;;;;;778011;76;26306;-73
2022/04/07 05:55:43;;;;;;;10.48;8.68;;;;;;;;;;781710;76;26221;-73
2022/04/07 05:56:52;;;;;;;9.35;8.40;;;;;;;;;;775087;76;26242;-74
2022/04/07 05:57:56;;;;;;;11.15;8.53;;;;;;;;;;763737;77;26320;-75
2022/04/07 06:02:50;;;;;;;15.38;8.28;;;;;;;;;;757393;78;26310;-74
2022/04/07 06:03:53;;;;;;;12.33;7.83;;;;;;;;;;757656;78;26252;-73
2022/04/07 06:04:55;;;;;;;9.65;7.20;;;;;;;;;;757640;78;26232;-74
2022/04/07 06:05:59;;;;;;;8.45;7.55;;;;;;;;;;757033;78;26294;-73
2022/04/07 06:07:03;;;;;;;8.00;7.10;;;;;;;;;;759905;78;26248;-74
2022/04/07 06:15:29;;;;;;;11.05;7.10;;;;;;;;;;793623;75;26224;-74
2022/04/07 06:16:32;;;;;;;8.35;7.50;;;;;;;;;;793589;75;26237;-74
2022/04/07 06:17:35;;;;;;;10.30;7.20;;;;;;;;;;793666;75;26659;-74
2022/04/07 06:22:27;;;;;;;12.07;7.15;;;;;;;;;;786499;75;26226;-74
2022/04/07 06:23:32;;;;;;;8.45;7.20;;;;;;;;;;785227;75;26281;-73
2022/04/07 06:24:35;;;;;;;9.45;7.40;;;;;;;;;;785658;75;26257;-73
2022/04/07 06:25:38;;;;;;;7.95;7.05;;;;;;;;;;785500;75;26240;-73
2022/04/07 06:26:41;;;;;;;8.43;7.00;;;;;;;;;;785619;75;26405;-73
2022/04/07 06:27:44;;;;;;;8.83;7.22;;;;;;;;;;785419;75;26250;-73
2022/04/07 06:32:31;;;;;;;8.03;7.05;;;;;;;;;;753019;78;26260;-72
2022/04/07 06:33:34;;;;;;;9.65;7.00;;;;;;;;;;753201;78;26724;-72
2022/04/07 06:34:39;;;;;;;8.73;6.67;;;;;;;;;;752857;77;26260;-72
2022/04/07 06:35:42;;;;;;;9.98;7.12;;;;;;;;;;753334;77;26256;-71
2022/04/07 06:36:45;;;;;;;10.40;7.17;;;;;;;;;;753139;77;26328;-72
2022/04/07 06:37:56;;;;;;;8.55;7.70;;;;;;;;;;753293;79;26783;-72
2022/04/07 06:42:38;;;;;;;11.12;7.70;;;;;;;;;;788671;75;26288;-73
2022/04/07 06:43:41;;;;;;;8.00;7.17;;;;;;;;;;788787;75;26652;-71
2022/04/07 06:44:44;;;;;;;8.43;6.58;;;;;;;;;;788125;75;26680;-72
2022/04/07 06:45:48;;;;;;;7.30;6.60;;;;;;;;;;770850;77;26290;-71
2022/04/07 06:46:53;;;;;;;8.20;7.40;;;;;;;;;;751595;77;26307;-73
2022/04/07 06:47:57;;;;;;;7.80;7.00;;;;;;;;;;774453;75;26748;-71
2022/04/07 06:49:58;;;;;;;13.22;6.83;;;;;;;;;;770146;77;26330;-72
2022/04/07 06:51:19;;;;;;;8.43;6.58;;;;;;;;;;761181;78;26688;-72
2022/04/07 06:52:26;;;;;;;7.33;6.62;;;;;;;;;;774634;76;26343;-72
2022/04/07 06:53:29;;;;;;;7.70;7.00;;;;;;;;;;774591;76;26682;-72
2022/04/07 06:54:33;;;;;;;7.78;6.97;;;;;;;;;;774775;76;26252;-73
2022/04/07 06:55:37;;;;;;;10.00;7.20;;;;;;;;;;774613;76;26359;-71
2022/04/07 06:56:40;;;;;;;7.72;7.03;;;;;;;;;;774561;76;26702;-72
2022/04/07 06:57:52;;;;;;;8.30;7.47;;;;;;;;;;774606;76;26258;-72
2022/04/07 07:02:36;;;;;;;8.43;6.70;;;;;;;;;;788675;75;26183;-71
2022/04/07 07:03:40;;;;;;;9.13;7.40;;;;;;;;;;788168;75;26242;-71
2022/04/07 07:04:43;;;;;;;8.38;7.00;;;;;;;;;;788204;75;26230;-73
2022/04/07 07:05:48;;;;;;;8.10;7.30;;;;;;;;;;788264;75;26726;-73
2022/04/07 07:06:53;;;;;;;8.25;7.08;;;;;;;;;;788263;75;26316;-71
2022/04/07 07:07:59;;;;;;;9.60;7.25;;;;;;;;;;788600;75;26720;-73
2022/04/07 07:10:31;;;;;;;7.78;7.00;;;;;;;;;;770699;75;26243;-71
2022/04/07 07:11:54;;;;;;;7.75;6.95;;;;;;;;;;795314;74;26228;-72
2022/04/07 07:13:01;;;;;;;8.05;7.22;;;;;;;;;;793423;74;26231;-70
2022/04/07 07:14:08;;;;;;;9.55;8.08;;;;;;;;;;788334;75;26761;-72
2022/04/07 07:15:14;;;;;;;8.03;7.22;;;;;;;;;;788364;75;26766;-75
2022/04/07 07:16:16;;;;;;;8.40;7.60;;;;;;;;;;788605;75;26288;-75
2022/04/07 07:23:09;;;;;;;13.78;6.97;;;;;;;;;;788611;75;26179;-71
2022/04/07 07:24:15;;;;;;;13.78;7.78;;;;;;;;;;777937;75;26253;-72
2022/04/07 07:25:24;;;;;;;15.38;8.25;;;;;;;;;;775257;76;26313;-72
2022/04/07 07:26:33;;;;;;;8.10;7.30;;;;;;;;;;775356;76;26263;-73
2022/04/07 07:28:03;;;;;;;10.78;7.95;;;;;;;;;;769652;76;26253;-71
2022/04/07 07:29:33;;;;;;;10.55;7.45;;;;;;;;;;773658;76;26310;-72
2022/04/07 07:31:03;;;;;;;9.75;7.75;;;;;;;;;;750347;78;26676;-72
2022/04/07 07:32:07;;;;;;;12.25;8.20;;;;;;;;;;773513;76;26249;-72
2022/04/07 07:33:10;;;;;;;15.13;8.85;;;;;;;;;;773014;77;26249;-72
2022/04/07 07:34:14;;;;;;;10.75;7.85;;;;;;;;;;772694;77;26334;-72
2022/04/07 07:35:20;;;;;;;9.93;7.80;;;;;;;;;;772358;77;26335;-74
2022/04/07 07:38:25;;;;;;;11.25;7.65;;;;;;;;;;772991;77;26154;-71
2022/04/07 07:39:29;;;;;;;15.58;8.30;;;;;;;;;;739304;80;26308;-72
2022/04/07 07:40:33;;;;;;;9.55;7.72;;;;;;;;;;727064;80;26326;-72
2022/04/07 07:41:38;;;;;;;10.32;7.78;;;;;;;;;;739836;80;26342;-71
2022/04/07 07:42:47;;;;;;;8.83;7.30;;;;;;;;;;739927;79;26257;-71
2022/04/07 07:43:52;;;;;;;10.25;7.72;;;;;;;;;;740850;80;26271;-74
2022/04/07 07:44:56;;;;;;;9.50;8.48;;;;;;;;;;738434;79;26263;-71
2022/04/07 07:46:01;;;;;;;8.40;7.47;;;;;;;;;;726632;81;26333;-75
2022/04/07 07:49:05;;;;;;;8.93;7.55;;;;;;;;;;756859;78;26205;-72
2022/04/07 07:50:06;;;;;;;11.63;8.35;;;;;;;;;;743052;78;26846;-73
2022/04/07 07:51:10;;;;;;;9.20;8.00;;;;;;;;;;756609;77;26273;-72
2022/04/07 07:52:13;;;;;;;9.75;8.68;;;;;;;;;;756383;78;26764;-72
2022/04/07 07:53:17;;;;;;;11.33;7.75;;;;;;;;;;756321;78;26265;-71
2022/04/07 07:54:20;;;;;;;12.33;8.63;;;;;;;;;;756403;78;26315;-71
2022/04/07 07:55:23;;;;;;;10.78;7.90;;;;;;;;;;756370;78;26350;-72
2022/04/07 08:03:34;;;;;;;8.50;7.60;;;;;;;;;;722856;82;26337;-70
2022/04/07 08:04:40;;;;;;;9.83;8.75;;;;;;;;;;732813;80;26276;-74
2022/04/07 08:05:44;;;;;;;11.90;9.18;;;;;;;;;;732562;80;26425;-70
2022/04/07 08:09:05;;;;;;;9.83;7.80;;;;;;;;;;738951;80;26807;-71
2022/04/07 08:10:08;;;;;;;8.23;7.42;;;;;;;;;;738802;80;26713;-71
2022/04/07 08:11:11;;;;;;;8.63;7.92;;;;;;;;;;738876;80;26732;-71
2022/04/07 08:12:14;;;;;;;9.78;8.78;;;;;;;;;;738832;80;26326;-71
2022/04/07 08:13:16;;;;;;;9.78;8.48;;;;;;;;;;738811;80;26699;-71
2022/04/07 08:14:20;;;;;;;10.90;8.20;;;;;;;;;;738888;80;26272;-70
2022/04/07 08:19:16;;;;;;;12.63;8.63;;;;;;;;;;760079;77;26666;-70
2022/04/07 08:20:19;;;;;;;17.23;9.05;;;;;;;;;;764835;77;26333;-70
2022/04/07 08:21:22;;;;;;;9.60;8.60;;;;;;;;;;765094;77;26234;-70
2022/04/07 08:22:25;;;;;;;11.60;8.90;;;;;;;;;;765940;77;26319;-72
2022/04/07 08:23:32;;;;;;;10.32;8.25;;;;;;;;;;764954;77;26328;-72
2022/04/07 08:24:36;;;;;;;10.45;8.85;;;;;;;;;;764418;77;26249;-71
2022/04/07 08:29:28;;;;;;;8.70;7.90;;;;;;;;;;738586;80;26341;-69
2022/04/07 08:30:34;;;;;;;9.25;8.05;;;;;;;;;;755755;78;26269;-71
2022/04/07 08:31:37;;;;;;;8.85;7.95;;;;;;;;;;758494;78;26307;-71
2022/04/07 08:32:41;;;;;;;10.38;8.28;;;;;;;;;;754389;79;26258;-69
2022/04/07 08:33:45;;;;;;;8.78;7.87;;;;;;;;;;754894;79;26698;-69
2022/04/07 08:34:48;;;;;;;9.93;7.67;;;;;;;;;;754600;79;26242;-71
2022/04/07 08:38:21;;;;;;;7.50;6.70;;;;;;;;;;754382;79;26223;-70
2022/04/07 08:39:24;;;;;;;10.32;7.90;;;;;;;;;;778415;76;26259;-69
2022/04/07 08:40:27;;;;;;;9.75;7.55;;;;;;;;;;757403;78;26265;-77
2022/04/07 08:41:31;;;;;;;8.53;7.35;;;;;;;;;;770460;77;26235;-72
2022/04/07 08:42:37;;;;;;;8.83;7.67;;;;;;;;;;770126;77;26313;-71
2022/04/07 08:43:42;;;;;;;8.68;7.20;;;;;;;;;;770102;77;26300;-71
2022/04/07 08:44:48;;;;;;;9.48;7.47;;;;;;;;;;770070;77;26678;-72
2022/04/07 08:45:51;;;;;;;13.48;7.10;;;;;;;;;;770520;77;26346;-71
2022/04/07 08:46:56;;;;;;;9.60;7.40;;;;;;;;;;779171;76;26247;-71
2022/04/07 08:47:59;;;;;;;7.70;6.62;;;;;;;;;;757732;78;26247;-70
2022/04/07 08:49:03;;;;;;;9.35;8.18;;;;;;;;;;770232;77;26311;-70
2022/04/07 08:50:07;;;;;;;8.55;7.62;;;;;;;;;;777637;76;26250;-70
2022/04/07 08:51:13;;;;;;;8.43;7.60;;;;;;;;;;757297;78;26721;-70
2022/04/07 08:52:16;;;;;;;7.75;6.97;;;;;;;;;;770008;77;26255;-72
2022/04/07 08:53:19;;;;;;;7.85;6.70;;;;;;;;;;770114;77;26340;-69
2022/04/07 08:54:23;;;;;;;8.13;7.30;;;;;;;;;;770398;77;26325;-71
2022/04/07 08:59:07;;;;;;;10.32;7.12;;;;;;;;;;769509;77;26235;-71
2022/04/07 09:00:11;;;;;;;9.80;7.22;;;;;;;;;;769405;77;26255;-71
2022/04/07 09:01:14;;;;;;;9.05;6.25;;;;;;;;;;769526;77;26767;-71
2022/04/07 09:02:17;;;;;;;8.05;7.25;;;;;;;;;;769576;77;26318;-71
2022/04/07 09:03:20;;;;;;;8.28;6.83;;;;;;;;;;769478;77;26715;-71
2022/04/07 09:04:23;;;;;;;9.70;6.65;;;;;;;;;;769488;77;26264;-72
2022/04/07 09:05:26;;;;;;;8.45;7.65;;;;;;;;;;769473;77;26263;-71
2022/04/07 09:06:31;;;;;;;11.15;7.80;;;;;;;;;;769470;77;26255;-70
2022/04/07 09:07:36;;;;;;;8.80;6.80;;;;;;;;;;769522;77;26267;-71
2022/04/07 09:08:40;;;;;;;9.30;7.00;;;;;;;;;;769479;77;26259;-71
2022/04/07 09:09:43;;;;;;;9.03;7.17;;;;;;;;;;769618;77;26271;-70
2022/04/07 09:10:55;;;;;;;8.45;7.42;;;;;;;;;;769487;77;26304;-72
2022/04/07 09:12:00;;;;;;;10.13;6.95;;;;;;;;;;769501;77;26717;-70
2022/04/07 09:13:04;;;;;;;10.20;7.30;;;;;;;;;;769406;77;26308;-69
2022/04/07 09:14:10;;;;;;;8.93;6.75;;;;;;;;;;769547;77;26257;-70
2022/04/07 09:17:06;;;;;;;8.75;6.87;;;;;;;;;;763672;76;26251;-71
2022/04/07 09:18:09;;;;;;;8.43;6.92;;;;;;;;;;762628;78;26216;-73
2022/04/07 09:19:13;;;;;;;10.78;7.45;;;;;;;;;;762950;78;26245;-71
2022/04/07 09:20:17;;;;;;;8.70;7.08;;;;;;;;;;762169;78;26309;-70
2022/04/07 09:21:28;;;;;;;11.40;7.20;;;;;;;;;;762171;78;26237;-70
2022/04/07 09:22:33;;;;;;;9.10;7.37;;;;;;;;;;761831;78;26312;-70
2022/04/07 09:23:40;;;;;;;8.40;7.60;;;;;;;;;;762461;78;26752;-70
2022/04/07 09:24:43;;;;;;;11.48;7.80;;;;;;;;;;761722;78;26250;-73
2022/04/07 09:28:01;;;;;;;10.72;7.75;;;;;;;;;;757676;78;26282;-71
2022/04/07 09:29:09;;;;;;;8.68;7.60;;;;;;;;;;757484;78;26680;-70
2022/04/07 09:30:14;;;;;;;10.43;7.80;;;;;;;;;;757431;78;26302;-71
2022/04/07 09:31:17;;;;;;;8.78;7.65;;;;;;;;;;757809;78;26241;-69
2022/04/07 09:32:21;;;;;;;7.85;7.15;;;;;;;;;;758600;78;26228;-72
2022/04/07 09:33:24;;;;;;;9.20;7.90;;;;;;;;;;757832;78;26244;-70
2022/04/07 09:34:32;;;;;;;8.78;7.87;;;;;;;;;;757727;78;26787;-70
2022/04/07 09:37:50;;;;;;;10.93;7.60;;;;;;;;;;744335;79;26297;-69
2022/04/07 09:38:54;;;;;;;10.65;7.45;;;;;;;;;;744284;79;26270;-69
2022/04/07 09:40:04;;;;;;;8.85;7.85;;;;;;;;;;744765;79;26320;-69
2022/04/07 09:41:08;;;;;;;8.95;7.90;;;;;;;;;;745165;79;26263;-70
2022/04/07 09:42:17;;;;;;;9.33;7.28;;;;;;;;;;744366;79;26758;-69
2022/04/07 09:43:22;;;;;;;8.63;7.15;;;;;;;;;;744215;79;26371;-71
2022/04/07 09:44:26;;;;;;;10.05;7.60;;;;;;;;;;744258;79;26262;-72
2022/04/07 09:47:36;;;;;;;9.53;7.90;;;;;;;;;;744363;79;26202;-70
2022/04/07 09:48:39;;;;;;;14.45;7.20;;;;;;;;;;744249;79;26731;-69
2022/04/07 09:49:42;;;;;;;11.50;6.42;;;;;;;;;;744275;79;26266;-70
2022/04/07 09:51:02;;;;;;;9.28;6.90;;;;;;;;;;744395;79;26773;-78
2022/04/07 09:52:07;;;;;;;15.25;6.87;;;;;;;;;;744978;79;26258;-70
2022/04/07 09:53:11;;;;;;;10.95;7.03;;;;;;;;;;745568;79;26312;-70
2022/04/07 09:54:16;;;;;;;13.60;7.33;;;;;;;;;;744482;79;26335;-70
2022/04/07 10:00:51;;;;;;;12.30;5.95;;;;;;;;;;744768;79;26182;-75
2022/04/07 10:01:56;;;;;;;10.15;5.75;;;;;;;;;;762816;78;26252;-72
2022/04/07 10:03:02;;;;;;;12.53;5.80;;;;;;;;;;762785;78;26256;-71
2022/04/07 10:04:08;;;;;;;15.23;5.85;;;;;;;;;;762638;78;26330;-69
2022/04/07 10:08:43;;;;;;;12.25;6.00;;;;;;;;;;749749;79;26203;-71
2022/04/07 10:09:47;;;;;;;7.72;5.87;;;;;;;;;;749585;79;26324;-70
2022/04/07 10:10:51;;;;;;;15.93;5.92;;;;;;;;;;749657;79;26348;-72
2022/04/07 10:11:58;;;;;;;8.85;6.00;;;;;;;;;;749611;79;26353;-71
2022/04/07 10:13:03;;;;;;;16.40;6.90;;;;;;;;;;749624;79;26727;-70
2022/04/07 10:14:08;;;;;;;12.95;6.55;;;;;;;;;;749728;79;26270;-69
2022/04/07 10:17:13;;;;;;;11.28;6.40;;;;;;;;;;767043;77;26208;-70